Time;durP1;ratioP1;P1;durP2;ratioP2;P2;SDS_P1;SDS_P2;PMS_P1;PMS_P2;Temp;Humidity;BMP_temperature;BMP_pressure;BME280_temperature;BME280_humidity;BME280_pressure;Samples;Min_cycle;Max_cycle;Signal;HPM_P1;HPM_P2
2021/04/29 00:00:22;;;;;;;5.40;3.05;;;14.90;54.60;;;13.97;51.12;98944.41;4972994;28;20138;-78
2021/04/29 00:02:49;;;;;;;7.25;3.15;;;14.90;54.60;;;13.96;51.25;98940.84;4972690;28;20054;-79
2021/04/29 00:05:21;;;;;;;5.72;3.20;;;14.90;54.90;;;13.97;51.50;98944.41;4971820;28;20045;-79
2021/04/29 00:07:48;;;;;;;6.50;2.85;;;14.90;55.60;;;13.92;52.17;98936.94;4972974;28;20054;-79
2021/04/29 00:10:18;;;;;;;5.15;3.03;;;14.80;55.90;;;13.90;51.78;98944.56;4972964;28;20130;-79
2021/04/29 00:12:45;;;;;;;5.82;2.80;;;14.80;55.80;;;13.87;51.72;98951.31;4975827;28;20506;-79
2021/04/29 00:15:15;;;;;;;7.07;3.30;;;14.80;55.90;;;13.86;52.74;98943.41;4976184;28;20492;-79
2021/04/29 00:17:43;;;;;;;6.43;3.13;;;14.80;56.70;;;13.85;52.17;98939.81;4976644;28;20412;-79
2021/04/29 00:20:16;;;;;;;6.47;3.13;;;14.80;56.60;;;13.85;52.43;98941.72;4995186;28;20447;-79
2021/04/29 00:22:43;;;;;;;6.30;2.88;;;14.80;56.60;;;13.82;52.08;98937.56;4995491;28;20050;-79
2021/04/29 00:25:12;;;;;;;6.47;3.05;;;14.70;56.80;;;13.80;52.70;98945.19;4995546;28;20077;-79
2021/04/29 00:27:38;;;;;;;7.55;2.90;;;14.70;57.60;;;13.79;52.84;98945.44;4995380;28;20053;-79
2021/04/29 00:30:09;;;;;;;4.53;2.95;;;14.60;57.60;;;13.75;52.80;98941.53;4993588;28;20077;-79
2021/04/29 00:32:37;;;;;;;5.55;2.72;;;14.60;57.90;;;13.72;53.30;98942.00;4995314;28;20430;-78
2021/04/29 00:35:06;;;;;;;6.65;3.00;;;14.50;58.00;;;13.71;53.11;98949.41;4994871;28;20050;-79
2021/04/29 00:37:34;;;;;;;4.88;2.60;;;14.60;58.60;;;13.68;53.37;98942.50;4995990;28;20057;-79
2021/04/29 00:40:01;;;;;;;5.13;3.03;;;14.50;58.70;;;13.66;53.21;98943.81;4995120;28;20053;-79
2021/04/29 00:42:28;;;;;;;10.55;3.15;;;14.40;58.80;;;13.63;53.59;98939.69;4994526;28;20054;-79
2021/04/29 00:44:55;;;;;;;6.18;2.67;;;14.40;58.50;;;13.62;53.20;98943.47;4995012;28;20038;-79
2021/04/29 00:47:22;;;;;;;5.22;2.92;;;14.40;59.70;;;13.62;53.43;98937.19;4995320;28;20245;-79
2021/04/29 00:49:49;;;;;;;8.85;2.72;;;14.40;59.80;;;13.58;53.46;98944.22;4995148;28;20050;-79
2021/04/29 00:52:16;;;;;;;5.43;3.00;;;14.30;60.10;;;13.57;53.28;98935.16;4994831;28;20510;-79
2021/04/29 00:54:43;;;;;;;6.80;3.10;;;14.30;60.00;;;13.54;53.52;98934.84;4993945;28;20038;-78
2021/04/29 00:57:10;;;;;;;7.18;3.15;;;14.30;60.20;;;13.51;54.03;98935.31;4995185;28;20104;-79
2021/04/29 00:59:37;;;;;;;6.72;2.97;;;14.30;60.20;;;13.52;53.41;98936.97;4994807;28;20061;-79
2021/04/29 01:02:06;;;;;;;6.47;3.05;;;14.30;60.30;;;13.50;53.76;98939.97;4993192;28;20050;-79
2021/04/29 01:04:41;;;;;;;7.43;3.35;;;14.20;60.50;;;13.51;53.84;98940.78;4994505;28;20085;-79
2021/04/29 01:07:11;;;;;;;8.60;3.08;;;14.20;60.70;;;13.51;53.98;98936.13;4994990;28;20042;-79
2021/04/29 01:09:44;;;;;;;5.32;2.85;;;14.20;60.90;;;13.48;54.38;98929.25;4994866;28;20054;-79
2021/04/29 01:12:21;;;;;;;8.15;3.25;;;14.20;61.10;;;13.48;53.89;98931.19;4995248;28;20053;-79
2021/04/29 01:14:50;;;;;;;10.90;3.50;;;14.20;60.80;;;13.51;54.09;98935.31;4993823;28;20046;-79
2021/04/29 01:17:18;;;;;;;6.07;2.80;;;14.20;60.00;;;13.47;54.27;98929.50;4995023;28;20055;-78
2021/04/29 01:19:55;;;;;;;8.27;3.45;;;14.20;59.80;;;13.45;54.24;98931.66;4994561;28;20224;-79
2021/04/29 01:22:22;;;;;;;7.43;3.40;;;14.20;60.10;;;13.47;54.08;98930.31;4993648;28;20053;-79
2021/04/29 01:25:00;;;;;;;5.93;3.35;;;14.20;60.00;;;13.48;54.64;98928.44;4993441;28;20038;-79
2021/04/29 01:27:28;;;;;;;8.00;3.10;;;14.20;60.30;;;13.45;54.70;98926.19;4994625;28;20101;-78
2021/04/29 01:29:55;;;;;;;6.38;3.05;;;14.20;60.70;;;13.43;54.98;98934.63;4994857;28;20550;-78
2021/04/29 01:32:22;;;;;;;5.75;2.80;;;14.20;60.50;;;13.42;54.87;98938.44;4994370;28;20376;-79
2021/04/29 01:34:49;;;;;;;7.55;3.38;;;14.20;60.40;;;13.44;54.86;98929.97;4993503;28;20069;-79
2021/04/29 01:37:16;;;;;;;9.65;3.42;;;14.20;60.70;;;13.43;54.79;98939.25;4993641;28;20089;-79
2021/04/29 01:39:44;;;;;;;10.40;3.78;;;14.20;60.80;;;13.44;54.75;98935.44;4994720;28;20046;-79
2021/04/29 01:42:11;;;;;;;8.20;2.95;;;14.20;60.70;;;13.45;54.77;98937.94;4994708;28;20046;-78
2021/04/29 01:44:39;;;;;;;6.53;3.17;;;14.20;60.80;;;13.45;54.58;98937.13;4993159;28;20050;-79
2021/04/29 01:47:07;;;;;;;6.30;3.30;;;14.20;60.60;;;13.46;55.12;98936.03;4992456;28;20484;-78
2021/04/29 01:49:34;;;;;;;7.63;3.45;;;14.20;61.00;;;13.43;55.10;98939.25;4994143;28;20053;-78
2021/04/29 01:52:01;;;;;;;7.70;3.47;;;14.10;61.00;;;13.42;55.04;98937.59;4994192;28;20140;-79
2021/04/29 01:54:28;;;;;;;7.20;3.40;;;14.20;61.00;;;13.41;55.38;98944.16;4993425;28;20043;-79
2021/04/29 01:56:55;;;;;;;5.60;3.22;;;14.10;61.40;;;13.41;55.52;98946.88;4993428;28;20050;-79
2021/04/29 01:59:23;;;;;;;6.97;3.22;;;14.10;61.40;;;13.40;55.10;98947.94;4993630;28;20046;-79
2021/04/29 02:01:50;;;;;;;7.60;3.22;;;14.10;61.40;;;13.42;54.90;98954.00;4994109;28;20049;-79
2021/04/29 02:04:17;;;;;;;7.97;3.38;;;14.10;61.30;;;13.40;55.51;98947.94;4993241;28;20050;-78
2021/04/29 02:06:45;;;;;;;7.55;3.70;;;14.10;61.40;;;13.40;55.40;98956.13;4993527;28;20049;-79
2021/04/29 02:09:14;;;;;;;7.80;3.70;;;14.10;61.60;;;13.38;55.54;98952.81;4992096;28;20533;-78
2021/04/29 02:11:49;;;;;;;10.98;3.85;;;14.10;61.50;;;13.36;55.90;98954.97;4993949;28;20509;-79
2021/04/29 02:14:22;;;;;;;9.25;4.22;;;14.10;62.00;;;13.29;56.24;98952.34;4993324;28;20054;-79
2021/04/29 02:16:51;;;;;;;8.73;3.97;;;14.10;62.10;;;13.25;56.39;98951.13;4993654;28;20042;-79
2021/04/29 02:19:23;;;;;;;5.72;3.60;;;14.10;61.80;;;13.27;56.70;98958.03;4991752;28;20109;-79
2021/04/29 02:21:50;;;;;;;;;;;14.10;62.20;;;13.27;56.33;98951.75;4993904;28;20393;-79
2021/04/29 02:24:20;;;;;;;9.30;4.10;;;14.10;62.10;;;13.26;56.45;98944.63;4993510;28;20321;-78
2021/04/29 02:26:49;;;;;;;10.25;5.10;;;14.10;62.20;;;13.26;56.48;98948.19;4993316;28;20495;-79
2021/04/29 02:29:17;;;;;;;9.18;5.00;;;14.00;62.10;;;13.25;56.81;98957.47;4993835;28;20046;-79
2021/04/29 02:31:45;;;;;;;12.00;4.90;;;14.00;62.20;;;13.25;56.83;98953.88;4991734;28;20061;-79
2021/04/29 02:34:13;;;;;;;10.45;5.38;;;14.00;62.40;;;13.25;56.24;98949.25;4990465;28;20684;-79
2021/04/29 02:36:40;;;;;;;11.43;5.00;;;14.00;62.20;;;13.23;56.53;98951.41;4992594;28;20064;-79
2021/04/29 02:39:08;;;;;;;9.10;5.78;;;14.00;62.00;;;13.24;56.36;98953.06;4993039;28;20081;-78
2021/04/29 02:41:35;;;;;;;11.95;5.22;;;14.00;62.20;;;13.23;56.33;98945.94;4992852;28;20066;-79
2021/04/29 02:44:03;;;;;;;10.13;5.68;;;14.10;62.10;;;13.22;56.62;98949.72;4991641;28;20495;-79
2021/04/29 02:46:31;;;;;;;8.85;5.07;;;14.00;62.40;;;13.19;56.88;98949.38;4993139;28;20553;-79
2021/04/29 02:48:58;;;;;;;10.15;5.60;;;14.10;62.60;;;13.18;56.63;98948.56;4993341;28;20507;-79
2021/04/29 02:51:26;;;;;;;11.50;6.28;;;14.00;62.60;;;13.12;57.49;98944.06;4993316;28;20052;-79
2021/04/29 02:53:52;;;;;;;9.82;6.55;;;14.00;62.30;;;13.15;57.23;98932.63;4992938;28;20074;-79
2021/04/29 02:56:19;;;;;;;12.10;6.68;;;14.00;62.50;;;13.15;57.20;98943.56;4993091;28;20049;-79
2021/04/29 02:58:48;;;;;;;11.65;6.78;;;14.00;62.20;;;13.13;57.38;98940.25;4992855;28;20047;-79
2021/04/29 03:01:16;;;;;;;11.93;6.75;;;14.10;62.60;;;13.14;57.17;98941.91;4992848;28;20104;-79
2021/04/29 03:03:44;;;;;;;13.95;7.43;;;14.00;62.90;;;13.08;57.48;98948.34;4992489;28;20085;-79
2021/04/29 03:06:11;;;;;;;16.60;8.10;;;14.10;64.00;;;13.11;57.28;98943.22;4992691;28;20053;-79
2021/04/29 03:08:39;;;;;;;12.48;7.78;;;14.00;63.90;;;13.13;57.52;98940.25;4992675;28;20085;-79
2021/04/29 03:11:06;;;;;;;14.70;8.10;;;14.00;63.50;;;13.12;57.62;98946.78;4991818;28;20054;-79
2021/04/29 03:13:33;;;;;;;15.25;8.10;;;14.00;63.70;;;13.13;57.27;98940.25;4992674;28;20137;-79
2021/04/29 03:16:01;;;;;;;14.55;8.15;;;14.00;63.50;;;13.12;57.59;98930.41;4992475;28;20545;-79
2021/04/29 03:18:28;;;;;;;15.88;9.13;;;14.00;63.50;;;13.08;57.91;98937.41;4991203;28;20089;-79
2021/04/29 03:20:54;;;;;;;16.13;8.43;;;14.00;63.70;;;13.05;57.34;98944.16;4992932;28;20073;-78
2021/04/29 03:23:21;;;;;;;12.95;7.95;;;14.00;63.40;;;13.07;58.02;98941.22;4992800;28;20046;-79
2021/04/29 03:25:49;;;;;;;15.52;9.02;;;14.00;63.60;;;13.07;57.70;98935.75;4992681;28;20092;-79
2021/04/29 03:28:16;;;;;;;16.50;8.70;;;14.00;63.80;;;13.07;57.83;98930.28;4992880;28;20042;-79
2021/04/29 03:30:43;;;;;;;17.48;9.43;;;14.00;63.70;;;13.04;58.16;98930.75;4992790;28;20053;-78
2021/04/29 03:33:10;;;;;;;16.95;8.98;;;14.00;64.00;;;13.04;57.65;98936.22;4992428;28;20082;-79
2021/04/29 03:35:37;;;;;;;15.70;8.70;;;13.90;63.60;;;13.04;58.04;98942.53;4992974;28;20046;-79
2021/04/29 03:38:04;;;;;;;16.10;8.73;;;13.90;63.80;;;13.05;57.58;98946.91;4992474;28;20050;-79
2021/04/29 03:40:31;;;;;;;18.13;9.10;;;13.90;63.70;;;13.05;57.99;98948.81;4992640;28;20046;-79
2021/04/29 03:42:59;;;;;;;18.17;9.68;;;13.90;63.90;;;13.06;58.30;98945.00;4992300;28;20589;-79
2021/04/29 03:45:26;;;;;;;15.63;8.93;;;13.90;64.00;;;13.05;57.59;98946.09;4993564;28;20562;-79
2021/04/29 03:47:53;;;;;;;20.48;10.05;;;13.90;64.00;;;13.02;58.15;98949.28;4995838;28;20066;-79
2021/04/29 03:50:20;;;;;;;18.70;9.32;;;13.90;64.20;;;13.02;57.84;98952.00;4994597;28;20133;-78
2021/04/29 03:52:47;;;;;;;14.25;8.90;;;13.90;64.60;;;13.03;57.62;98953.69;4995010;28;20081;-78
2021/04/29 03:55:14;;;;;;;17.83;9.32;;;13.90;64.60;;;13.02;58.00;98957.47;4995498;28;20082;-78
2021/04/29 03:57:40;;;;;;;18.33;9.57;;;13.80;64.60;;;13.03;57.98;98962.69;4996208;28;20193;-78
2021/04/29 04:00:10;;;;;;;17.52;9.00;;;13.80;64.90;;;12.99;58.16;98955.25;4996009;28;20066;-78
2021/04/29 04:02:37;;;;;;;15.25;9.38;;;13.80;64.70;;;13.00;58.10;98959.63;4996422;28;20050;-78
2021/04/29 04:05:05;;;;;;;15.25;8.85;;;13.80;65.10;;;13.02;58.04;98965.66;4994507;28;20100;-78
2021/04/29 04:07:32;;;;;;;13.63;9.15;;;13.70;65.10;;;12.99;58.07;98966.97;4995986;28;20414;-78
2021/04/29 04:09:59;;;;;;;18.08;10.20;;;13.80;65.20;;;12.98;58.43;98964.50;4995797;28;20049;-78
2021/04/29 04:12:26;;;;;;;19.42;9.27;;;13.80;65.10;;;12.97;57.88;98957.38;4995859;28;20050;-78
2021/04/29 04:14:52;;;;;;;16.55;9.52;;;13.80;65.20;;;12.97;58.28;98962.84;4993202;28;20050;-78
2021/04/29 04:17:20;;;;;;;15.93;8.82;;;13.70;65.40;;;12.99;58.25;98960.69;4995803;28;20034;-78
2021/04/29 04:19:47;;;;;;;14.57;8.90;;;13.70;65.30;;;12.98;58.59;98961.75;4995697;28;20689;-78
2021/04/29 04:22:13;;;;;;;17.20;9.18;;;13.70;65.60;;;12.98;58.73;98967.22;4995581;28;20101;-78
2021/04/29 04:24:40;;;;;;;18.48;9.60;;;13.70;65.80;;;12.91;59.38;98973.63;4994714;28;20105;-78
2021/04/29 04:27:07;;;;;;;18.90;9.65;;;13.70;65.90;;;12.93;58.63;98975.28;4995020;28;20061;-78
2021/04/29 04:29:34;;;;;;;15.50;9.38;;;13.70;65.90;;;12.91;58.67;98973.63;4995155;28;20105;-78
2021/04/29 04:32:01;;;;;;;16.13;8.65;;;13.70;65.90;;;12.95;58.45;98971.25;4994787;28;20051;-78
2021/04/29 04:34:28;;;;;;;15.23;9.32;;;13.70;66.00;;;12.90;58.89;98984.78;4993697;28;20053;-78
2021/04/29 04:36:55;;;;;;;19.35;9.38;;;13.70;66.20;;;12.91;59.02;98981.00;4995278;28;20138;-78
2021/04/29 04:39:22;;;;;;;17.40;9.18;;;13.70;66.60;;;12.88;59.39;98981.47;4995114;28;20093;-78
2021/04/29 04:41:49;;;;;;;22.30;10.15;;;13.60;66.70;;;12.86;59.85;98992.63;4995254;28;20061;-78
2021/04/29 04:44:15;;;;;;;18.65;10.80;;;13.70;66.90;;;12.85;59.54;98987.41;4994517;28;20129;-78
2021/04/29 04:46:42;;;;;;;16.52;10.48;;;13.70;66.60;;;12.83;59.26;99001.31;4994803;28;20069;-78
2021/04/29 04:49:09;;;;;;;17.33;10.80;;;13.60;66.60;;;12.84;59.49;98996.66;4996484;28;20522;-79
2021/04/29 04:51:36;;;;;;;18.13;11.18;;;13.60;66.70;;;12.83;59.73;99005.91;4995485;28;20133;-78
2021/04/29 04:54:04;;;;;;;24.00;11.23;;;13.60;66.90;;;12.77;59.80;99007.69;4995064;28;20124;-78
2021/04/29 04:56:30;;;;;;;21.38;12.18;;;13.60;66.80;;;12.75;60.32;99004.38;4995060;28;20046;-79
2021/04/29 04:58:57;;;;;;;20.08;11.90;;;13.60;66.80;;;12.73;59.99;99006.50;4995067;28;20050;-79
2021/04/29 05:01:27;;;;;;;25.70;12.02;;;13.60;66.50;;;12.72;60.32;99021.22;4995041;28;20046;-79
2021/04/29 05:03:54;;;;;;;23.05;12.52;;;13.60;66.40;;;12.74;60.09;99019.09;4994629;28;20562;-79
2021/04/29 05:06:21;;;;;;;23.48;12.60;;;13.70;66.60;;;12.72;60.00;99015.78;4994736;28;20092;-79
2021/04/29 05:08:49;;;;;;;24.48;13.20;;;13.60;66.70;;;12.71;60.05;99025.00;4993483;28;20065;-79
2021/04/29 05:11:15;;;;;;;21.27;13.52;;;13.60;66.80;;;12.72;60.14;99026.69;4995330;28;20054;-79
2021/04/29 05:13:42;;;;;;;24.63;14.43;;;13.60;66.80;;;12.66;60.35;99027.63;4994550;28;20049;-79
2021/04/29 05:16:09;;;;;;;25.63;14.60;;;13.60;66.80;;;12.66;59.92;99042.13;4994486;28;20121;-79
2021/04/29 05:18:38;;;;;;;26.90;15.25;;;13.60;66.30;;;12.64;59.98;99035.19;4994809;28;20418;-79
2021/04/29 05:21:05;;;;;;;27.15;14.43;;;13.60;66.20;;;12.65;60.05;99031.41;4994405;28;20078;-80
2021/04/29 05:23:32;;;;;;;23.65;15.02;;;13.60;66.30;;;12.64;60.32;99036.06;4994733;28;20066;-79
2021/04/29 05:25:59;;;;;;;28.52;15.70;;;13.60;66.30;;;12.62;61.22;99037.34;4994291;28;20046;-79
2021/04/29 05:28:26;;;;;;;31.95;16.70;;;13.70;67.00;;;12.65;61.92;99037.72;4994776;28;20092;-79
2021/04/29 05:30:53;;;;;;;26.35;15.20;;;13.60;67.80;;;12.67;62.38;99041.03;4993957;28;20432;-80
2021/04/29 05:33:20;;;;;;;26.58;15.65;;;13.70;69.30;;;12.66;62.70;99039.38;4993549;28;20093;-79
2021/04/29 05:35:46;;;;;;;26.50;15.43;;;13.70;69.20;;;12.66;62.23;99044.84;4994211;28;20125;-79
2021/04/29 05:38:13;;;;;;;27.33;15.43;;;13.70;69.20;;;12.65;62.01;99034.16;4994267;28;20081;-79
2021/04/29 05:40:40;;;;;;;29.67;16.70;;;13.70;68.80;;;12.68;61.77;99041.88;4994410;28;20073;-79
2021/04/29 05:43:08;;;;;;;28.15;16.13;;;13.70;68.90;;;12.71;62.06;99033.22;4993903;28;20117;-80
2021/04/29 05:45:35;;;;;;;29.33;16.08;;;13.70;68.90;;;12.72;61.68;99043.06;4994407;28;20046;-79
2021/04/29 05:48:02;;;;;;;31.27;16.30;;;13.80;68.50;;;12.77;61.50;99048.63;4993851;28;20054;-79
2021/04/29 05:50:29;;;;;;;28.52;15.35;;;13.90;67.80;;;12.80;60.97;99050.91;4993489;28;20495;-79
2021/04/29 05:52:55;;;;;;;31.90;17.23;;;13.90;67.40;;;12.81;61.08;99041.66;4991365;28;20404;-79
2021/04/29 05:55:22;;;;;;;28.77;16.20;;;14.00;66.90;;;12.84;61.10;99052.09;4994215;28;20057;-79
2021/04/29 05:57:49;;;;;;;26.45;16.52;;;14.10;67.00;;;12.88;60.95;99050.56;4994564;28;20053;-79
2021/04/29 06:00:18;;;;;;;25.85;17.70;;;14.30;65.80;;;12.90;59.67;99042.13;4995124;28;20081;-79
2021/04/29 06:02:45;;;;;;;26.65;17.38;;;14.50;64.30;;;12.90;59.55;99051.16;4995290;28;20054;-79
2021/04/29 06:05:12;;;;;;;28.33;17.73;;;14.80;63.20;;;12.98;59.04;99051.88;4992585;28;20076;-81
2021/04/29 06:07:39;;;;;;;28.13;17.00;;;14.80;62.60;;;13.04;58.74;99050.91;4990454;28;20054;-78
2021/04/29 06:10:08;;;;;;;32.63;17.92;;;14.80;62.70;;;13.05;58.03;99045.22;4994332;28;20132;-79
2021/04/29 06:12:35;;;;;;;29.10;18.00;;;14.70;62.50;;;13.09;57.87;99051.06;4994548;28;20121;-80
2021/04/29 06:15:08;;;;;;;27.13;18.45;;;14.70;62.60;;;13.13;57.82;99049.50;4993138;28;20435;-78
2021/04/29 06:17:36;;;;;;;34.58;19.05;;;14.60;62.30;;;13.15;58.15;99046.53;4976985;28;20101;-79
2021/04/29 06:20:03;;;;;;;32.35;18.70;;;14.60;62.30;;;13.19;57.93;99047.72;4978869;28;20054;-79
2021/04/29 06:22:30;;;;;;;34.20;19.05;;;14.70;62.30;;;13.23;57.81;99057.09;4982031;28;20141;-79
2021/04/29 06:24:57;;;;;;;29.00;19.27;;;14.70;62.20;;;13.25;57.27;99058.53;4970922;28;20058;-79
2021/04/29 06:27:24;;;;;;;33.38;19.92;;;14.80;61.90;;;13.28;57.41;99068.97;4972113;28;20575;-80
2021/04/29 06:29:50;;;;;;;33.20;19.98;;;14.80;61.70;;;13.33;57.69;99067.47;4974708;28;20047;-80
2021/04/29 06:32:17;;;;;;;36.10;21.30;;;14.80;61.90;;;13.39;57.62;99080.19;4987576;28;20478;-81
2021/04/29 06:34:46;;;;;;;32.88;20.45;;;14.80;61.50;;;13.43;56.79;99062.25;4988646;28;20074;-80
2021/04/29 06:37:13;;;;;;;32.70;19.73;;;14.90;60.80;;;13.45;56.49;99071.84;4991475;28;20085;-80
2021/04/29 06:39:43;;;;;;;31.83;21.13;;;14.90;60.90;;;13.49;55.47;99077.66;4991650;28;20111;-80
2021/04/29 06:42:10;;;;;;;31.63;19.92;;;14.90;60.20;;;13.53;56.17;99075.31;4988112;28;20113;-80
2021/04/29 06:44:36;;;;;;;35.03;18.92;;;15.00;60.30;;;13.55;56.08;99079.44;4975851;28;20785;-80
2021/04/29 06:47:03;;;;;;;32.83;19.33;;;15.00;60.20;;;13.56;55.92;99070.19;4990327;28;20114;-80
2021/04/29 06:49:30;;;;;;;38.33;18.90;;;15.10;60.00;;;13.56;55.23;99078.38;4987415;28;20077;-80
2021/04/29 06:51:58;;;;;;;29.05;18.30;;;15.10;59.30;;;13.60;55.22;99087.75;4990952;28;20046;-80
2021/04/29 06:54:24;;;;;;;37.28;18.63;;;15.10;59.30;;;13.62;54.12;99082.06;4990337;28;20050;-79
2021/04/29 06:56:53;;;;;;;26.92;18.02;;;15.20;58.50;;;13.61;55.44;99094.06;4974749;28;20070;-80
2021/04/29 06:59:20;;;;;;;25.98;17.50;;;15.20;58.70;;;13.64;55.00;99090.84;4976230;28;20071;-81
2021/04/29 07:01:49;;;;;;;29.38;18.42;;;15.20;59.50;;;13.66;54.84;99095.00;4982922;28;20043;-81
2021/04/29 07:04:15;;;;;;;27.85;17.55;;;15.20;59.50;;;13.68;54.28;99103.78;4994657;28;20058;-81
2021/04/29 07:06:42;;;;;;;30.38;18.27;;;15.20;58.70;;;13.69;54.15;99093.72;4996115;28;20070;-81
2021/04/29 07:09:10;;;;;;;27.67;16.85;;;15.30;59.20;;;13.74;55.01;99093.81;4995901;28;20054;-81
2021/04/29 07:11:37;;;;;;;28.45;17.15;;;15.30;59.40;;;13.75;54.90;99100.94;4996433;28;20051;-80
2021/04/29 07:14:04;;;;;;;29.10;18.15;;;15.40;59.10;;;13.79;54.67;99106.78;4994935;28;20107;-81
2021/04/29 07:16:31;;;;;;;26.60;16.58;;;15.40;59.20;;;13.81;54.71;99096.41;4995136;28;20057;-81
2021/04/29 07:18:58;;;;;;;26.67;17.52;;;15.50;59.00;;;13.79;54.46;99101.28;4993932;28;20050;-81
2021/04/29 07:21:25;;;;;;;28.75;18.05;;;15.50;58.40;;;13.80;54.13;99098.34;5000035;28;20054;-81
2021/04/29 07:23:51;;;;;;;30.08;18.45;;;15.50;58.00;;;13.81;54.12;99108.19;4984544;28;20050;-81
2021/04/29 07:26:19;;;;;;;26.42;17.15;;;15.50;58.20;;;13.83;53.80;99102.47;4997203;28;20053;-81
2021/04/29 07:28:46;;;;;;;36.08;18.58;;;15.60;58.10;;;13.84;53.57;99113.19;4999159;28;20104;-81
2021/04/29 07:31:14;;;;;;;28.05;17.73;;;15.60;57.40;;;13.85;54.46;99117.56;4999531;28;20042;-80
2021/04/29 07:33:41;;;;;;;32.53;18.67;;;15.60;57.50;;;13.89;53.89;99110.53;4999777;28;20821;-81
2021/04/29 07:36:08;;;;;;;30.33;18.00;;;15.60;57.20;;;13.93;54.08;99115.53;4994810;28;20054;-80
2021/04/29 07:38:35;;;;;;;31.75;18.23;;;15.60;57.10;;;13.92;54.22;99117.44;4995899;28;20046;-81
2021/04/29 07:41:03;;;;;;;29.88;17.52;;;15.60;57.00;;;13.96;54.75;99124.09;4998862;28;20050;-81
2021/04/29 07:43:32;;;;;;;29.13;17.92;;;15.70;57.70;;;13.98;54.36;99116.47;4998707;28;20069;-80
2021/04/29 07:45:59;;;;;;;30.05;18.52;;;15.70;57.80;;;13.98;54.43;99118.38;4996367;28;20043;-81
2021/04/29 07:48:26;;;;;;;31.88;18.83;;;15.70;57.00;;;14.04;54.33;99123.72;4998679;28;20046;-80
2021/04/29 07:50:54;;;;;;;31.17;18.77;;;15.70;57.40;;;14.10;54.16;99119.16;4991323;28;20057;-81
2021/04/29 07:53:21;;;;;;;27.38;18.33;;;15.80;57.40;;;14.11;54.50;99120.00;4998341;28;20053;-81
2021/04/29 07:55:47;;;;;;;32.08;17.95;;;15.80;57.30;;;14.16;54.22;99122.84;4997901;28;20042;-81
2021/04/29 07:58:14;;;;;;;29.75;18.60;;;15.80;57.60;;;14.17;54.38;99125.34;4999468;28;20054;-81
2021/04/29 08:00:42;;;;;;;32.88;19.60;;;15.80;57.40;;;14.19;54.60;99123.19;4997899;28;20422;-80
2021/04/29 08:03:09;;;;;;;29.63;19.50;;;15.90;57.60;;;14.21;54.54;99131.16;4998685;28;20053;-81
2021/04/29 08:05:36;;;;;;;33.85;19.88;;;15.90;57.50;;;14.21;54.08;99131.16;4984419;28;20099;-81
2021/04/29 08:08:03;;;;;;;32.35;20.50;;;15.90;57.00;;;14.20;54.41;99141.28;4998511;28;20057;-80
2021/04/29 08:10:30;;;;;;;33.65;21.58;;;15.90;57.30;;;14.20;54.79;99134.97;4996610;28;20054;-81
2021/04/29 08:12:57;;;;;;;40.28;23.67;;;15.90;57.70;;;14.17;55.19;99140.94;4996449;28;20134;-81
2021/04/29 08:15:24;;;;;;;37.75;26.65;;;15.90;57.90;;;14.16;55.34;99145.56;4998664;28;20450;-81
2021/04/29 08:17:52;;;;;;;49.15;31.92;;;15.80;58.40;;;14.16;56.35;99153.75;4998838;28;20161;-81
2021/04/29 08:20:19;;;;;;;50.50;33.90;;;15.70;59.40;;;14.17;57.29;99154.63;4997966;28;20056;-81
2021/04/29 08:22:46;;;;;;;56.08;33.47;;;15.80;60.40;;;14.12;57.70;99154.50;4992747;28;20057;-81
2021/04/29 08:25:13;;;;;;;67.28;36.50;;;15.80;60.00;;;14.05;57.21;99151.88;5000889;28;20050;-81
2021/04/29 08:27:40;;;;;;;52.97;34.53;;;15.70;60.30;;;14.02;57.04;99164.16;4997720;28;20105;-81
2021/04/29 08:30:09;;;;;;;56.25;36.20;;;15.60;60.30;;;13.96;57.65;99162.38;4992659;28;20125;-80
2021/04/29 08:32:35;;;;;;;54.50;37.30;;;15.50;61.10;;;13.96;58.07;99167.03;4991356;28;20057;-81
2021/04/29 08:35:04;;;;;;;61.65;37.28;;;15.40;62.00;;;13.90;58.87;99157.88;4998335;28;20057;-81
2021/04/29 08:37:31;;;;;;;63.70;38.28;;;15.50;62.50;;;13.92;58.72;99165.81;4998928;28;20057;-81
2021/04/29 08:39:58;;;;;;;57.90;36.30;;;15.60;62.40;;;13.93;58.46;99162.84;5004782;28;20046;-81
2021/04/29 08:42:28;;;;;;;56.55;36.92;;;15.60;61.70;;;13.88;57.20;99170.97;4999063;28;20050;-81
2021/04/29 08:44:55;;;;;;;60.08;37.08;;;15.60;61.70;;;13.88;57.26;99170.97;5000112;28;20058;-80
2021/04/29 08:47:22;;;;;;;54.28;36.35;;;15.60;61.50;;;13.91;57.57;99175.13;5003776;28;20124;-81
2021/04/29 08:49:49;;;;;;;58.83;37.03;;;15.60;62.00;;;13.91;58.03;99181.41;5000940;28;20129;-80
2021/04/29 08:52:17;;;;;;;53.50;35.70;;;15.50;62.50;;;13.88;58.25;99176.44;4998726;28;20411;-81
2021/04/29 08:54:46;;;;;;;59.75;36.38;;;15.40;62.60;;;13.84;57.46;99187.00;4998234;28;20110;-81
2021/04/29 08:57:13;;;;;;;55.85;35.15;;;15.40;62.10;;;13.91;58.45;99186.88;5000161;28;20045;-80
2021/04/29 08:59:41;;;;;;;56.42;35.30;;;15.40;63.50;;;13.86;57.42;99192.25;5000061;28;20042;-81
2021/04/29 09:02:08;;;;;;;53.50;34.15;;;15.40;62.10;;;13.81;57.74;99192.94;4998562;28;20050;-81
2021/04/29 09:04:40;;;;;;;59.88;36.03;;;15.50;62.10;;;13.82;58.22;99196.50;4984861;28;20038;-81
2021/04/29 09:07:14;;;;;;;58.17;36.63;;;15.40;62.40;;;13.79;58.47;99194.28;4990161;28;20100;-81
2021/04/29 09:09:44;;;;;;;55.85;36.47;;;15.40;62.80;;;13.80;57.83;99196.78;4992977;28;20054;-80
2021/04/29 09:12:11;;;;;;;49.45;34.00;;;15.40;62.40;;;13.83;57.70;99192.72;4986029;28;20054;-80
2021/04/29 09:14:41;;;;;;;52.42;33.47;;;15.40;62.30;;;13.84;58.10;99192.47;4981079;28;20047;-80
2021/04/29 09:17:10;;;;;;;50.50;33.58;;;15.30;62.80;;;13.76;57.48;99200.19;4979839;28;20058;-81
2021/04/29 09:19:47;;;;;;;46.10;31.33;;;15.30;62.50;;;13.80;57.21;99195.91;4980973;28;20058;-80
2021/04/29 09:22:18;;;;;;;46.20;32.40;;;15.20;62.30;;;13.81;57.00;99200.34;4996008;28;20038;-81
2021/04/29 09:24:45;;;;;;;54.28;31.60;;;15.20;62.30;;;13.84;57.34;99208.91;4999391;28;20046;-81
2021/04/29 09:27:15;;;;;;;47.67;30.42;;;15.20;62.40;;;13.84;57.19;99197.09;4995224;28;20141;-79
2021/04/29 09:29:54;;;;;;;44.08;30.25;;;15.30;61.40;;;13.84;57.13;99197.09;5006838;28;20060;-81
2021/04/29 09:32:26;;;;;;;46.60;30.52;;;15.30;61.70;;;13.90;57.83;99185.22;4998130;28;20050;-80
2021/04/29 09:34:53;;;;;;;52.15;29.13;;;15.40;61.80;;;13.93;56.71;99198.41;4993598;28;20042;-80
2021/04/29 09:37:33;;;;;;;47.40;28.42;;;15.50;60.60;;;13.91;55.50;99197.81;4996746;28;20038;-80
2021/04/29 09:40:05;;;;;;;45.38;28.02;;;15.50;59.90;;;13.94;56.03;99191.88;4998267;28;20050;-80
2021/04/29 09:42:36;;;;;;;41.28;28.73;;;15.50;60.20;;;13.94;55.99;99194.63;4995486;28;20490;-80
2021/04/29 09:45:19;;;;;;;43.38;28.98;;;15.50;60.10;;;13.90;55.52;99201.63;4995158;28;20054;-80
2021/04/29 09:48:01;;;;;;;43.53;27.58;;;15.40;60.40;;;13.78;54.35;99198.06;4995599;28;20038;-80
2021/04/29 09:50:30;;;;;;;43.00;26.48;;;15.40;58.30;;;13.80;55.36;99202.25;4993775;28;20050;-79
2021/04/29 09:53:10;;;;;;;37.33;25.00;;;15.30;59.30;;;13.83;54.91;99211.84;4993310;28;20730;-79
2021/04/29 09:55:40;;;;;;;35.67;23.10;;;15.40;58.90;;;13.84;54.06;99200.69;4990916;28;20828;-79
2021/04/29 09:58:13;;;;;;;37.28;23.17;;;15.40;58.40;;;13.85;54.39;99204.25;4990193;28;20412;-79
2021/04/29 10:00:41;;;;;;;35.58;23.90;;;15.40;58.10;;;13.97;55.02;99204.22;4990875;28;20054;-80
2021/04/29 10:03:08;;;;;;;37.45;23.85;;;15.50;59.00;;;14.01;55.54;99200.81;4990793;28;20538;-80
2021/04/29 10:05:40;;;;;;;34.03;23.42;;;15.60;59.00;;;14.02;54.91;99216.13;4988969;28;20046;-80
2021/04/29 10:08:10;;;;;;;35.25;23.60;;;15.60;57.80;;;14.08;55.34;99209.69;4991148;28;20118;-80
2021/04/29 10:10:40;;;;;;;32.23;22.27;;;15.60;58.80;;;14.17;55.54;99207.44;4988858;28;20050;-79
2021/04/29 10:13:08;;;;;;;34.10;22.67;;;15.70;59.60;;;14.28;55.99;99208.50;4990264;28;20816;-79